sensor_id;sensor_type;location;lat;lon;timestamp;P1;durP1;ratioP1;P2;durP2;ratioP2
77220;SDS011;66217;50.004;8.266;2023-07-24T00:00:11;4.57;;;2.70;;
77220;SDS011;66217;50.004;8.266;2023-07-24T00:02:37;4.63;;;2.60;;
77220;SDS011;66217;50.004;8.266;2023-07-24T00:05:02;4.88;;;2.63;;
77220;SDS011;66217;50.004;8.266;2023-07-24T00:07:28;6.80;;;2.58;;
77220;SDS011;66217;50.004;8.266;2023-07-24T00:09:53;6.25;;;2.40;;
77220;SDS011;66217;50.004;8.266;2023-07-24T00:12:20;6.68;;;2.70;;
77220;SDS011;66217;50.004;8.266;2023-07-24T00:14:45;4.05;;;2.42;;
77220;SDS011;66217;50.004;8.266;2023-07-24T00:17:11;5.63;;;2.50;;
77220;SDS011;66217;50.004;8.266;2023-07-24T00:19:36;5.78;;;2.40;;
77220;SDS011;66217;50.004;8.266;2023-07-24T00:22:01;8.00;;;2.42;;
77220;SDS011;66217;50.004;8.266;2023-07-24T00:24:27;3.78;;;2.20;;
77220;SDS011;66217;50.004;8.266;2023-07-24T00:26:52;10.23;;;2.58;;
77220;SDS011;66217;50.004;8.266;2023-07-24T00:29:18;4.65;;;2.55;;
77220;SDS011;66217;50.004;8.266;2023-07-24T00:31:43;3.53;;;2.25;;
77220;SDS011;66217;50.004;8.266;2023-07-24T00:34:09;7.30;;;2.47;;
77220;SDS011;66217;50.004;8.266;2023-07-24T00:36:34;4.30;;;2.45;;
77220;SDS011;66217;50.004;8.266;2023-07-24T00:38:59;6.55;;;2.35;;
77220;SDS011;66217;50.004;8.266;2023-07-24T00:41:25;4.70;;;2.47;;
77220;SDS011;66217;50.004;8.266;2023-07-24T00:43:53;3.03;;;2.30;;
77220;SDS011;66217;50.004;8.266;2023-07-24T00:46:18;4.35;;;2.20;;
77220;SDS011;66217;50.004;8.266;2023-07-24T00:48:44;3.58;;;2.30;;
77220;SDS011;66217;50.004;8.266;2023-07-24T00:51:09;5.97;;;2.33;;
77220;SDS011;66217;50.004;8.266;2023-07-24T00:53:35;5.93;;;2.28;;
77220;SDS011;66217;50.004;8.266;2023-07-24T00:56:00;5.15;;;2.10;;
77220;SDS011;66217;50.004;8.266;2023-07-24T00:58:26;10.70;;;2.38;;
77220;SDS011;66217;50.004;8.266;2023-07-24T01:00:51;3.72;;;2.50;;
77220;SDS011;66217;50.004;8.266;2023-07-24T01:03:17;3.03;;;1.98;;
77220;SDS011;66217;50.004;8.266;2023-07-24T01:05:42;3.88;;;2.20;;
77220;SDS011;66217;50.004;8.266;2023-07-24T01:08:08;3.38;;;2.00;;
77220;SDS011;66217;50.004;8.266;2023-07-24T01:10:33;6.60;;;2.28;;
77220;SDS011;66217;50.004;8.266;2023-07-24T01:13:03;6.13;;;2.28;;
77220;SDS011;66217;50.004;8.266;2023-07-24T01:18:10;4.90;;;2.58;;
77220;SDS011;66217;50.004;8.266;2023-07-24T01:20:37;5.53;;;2.22;;
77220;SDS011;66217;50.004;8.266;2023-07-24T01:26:15;4.72;;;2.60;;
77220;SDS011;66217;50.004;8.266;2023-07-24T01:28:42;7.72;;;2.30;;
77220;SDS011;66217;50.004;8.266;2023-07-24T01:31:08;7.97;;;2.33;;
77220;SDS011;66217;50.004;8.266;2023-07-24T01:33:34;11.55;;;2.75;;
77220;SDS011;66217;50.004;8.266;2023-07-24T01:36:00;6.22;;;2.60;;
77220;SDS011;66217;50.004;8.266;2023-07-24T01:38:27;4.60;;;2.45;;
77220;SDS011;66217;50.004;8.266;2023-07-24T01:40:53;3.50;;;2.28;;
77220;SDS011;66217;50.004;8.266;2023-07-24T01:43:19;6.15;;;2.58;;
77220;SDS011;66217;50.004;8.266;2023-07-24T01:45:45;4.13;;;2.17;;
77220;SDS011;66217;50.004;8.266;2023-07-24T01:48:10;3.60;;;2.10;;
77220;SDS011;66217;50.004;8.266;2023-07-24T01:50:35;3.88;;;2.50;;
77220;SDS011;66217;50.004;8.266;2023-07-24T01:53:01;6.68;;;2.58;;
77220;SDS011;66217;50.004;8.266;2023-07-24T01:55:27;12.43;;;2.60;;
77220;SDS011;66217;50.004;8.266;2023-07-24T01:57:52;3.22;;;2.17;;
77220;SDS011;66217;50.004;8.266;2023-07-24T02:00:18;4.22;;;2.60;;
77220;SDS011;66217;50.004;8.266;2023-07-24T02:02:43;7.38;;;2.33;;
77220;SDS011;66217;50.004;8.266;2023-07-24T02:05:09;4.18;;;2.40;;
77220;SDS011;66217;50.004;8.266;2023-07-24T02:07:34;4.00;;;2.55;;
77220;SDS011;66217;50.004;8.266;2023-07-24T02:10:00;6.28;;;2.95;;
77220;SDS011;66217;50.004;8.266;2023-07-24T02:12:25;7.90;;;2.50;;
77220;SDS011;66217;50.004;8.266;2023-07-24T02:14:50;3.83;;;2.30;;
77220;SDS011;66217;50.004;8.266;2023-07-24T02:17:17;6.50;;;2.30;;
77220;SDS011;66217;50.004;8.266;2023-07-24T02:19:43;3.67;;;2.40;;
77220;SDS011;66217;50.004;8.266;2023-07-24T02:22:08;4.13;;;2.40;;
77220;SDS011;66217;50.004;8.266;2023-07-24T02:24:34;4.20;;;2.35;;
77220;SDS011;66217;50.004;8.266;2023-07-24T02:26:59;8.63;;;2.50;;
77220;SDS011;66217;50.004;8.266;2023-07-24T02:29:25;4.50;;;2.40;;
77220;SDS011;66217;50.004;8.266;2023-07-24T02:31:50;7.47;;;2.92;;
77220;SDS011;66217;50.004;8.266;2023-07-24T02:34:16;4.97;;;2.40;;
77220;SDS011;66217;50.004;8.266;2023-07-24T02:36:41;5.25;;;2.10;;
77220;SDS011;66217;50.004;8.266;2023-07-24T02:39:08;7.63;;;2.72;;
77220;SDS011;66217;50.004;8.266;2023-07-24T02:41:35;5.65;;;2.78;;
77220;SDS011;66217;50.004;8.266;2023-07-24T02:44:02;5.65;;;2.50;;
77220;SDS011;66217;50.004;8.266;2023-07-24T02:46:28;4.90;;;2.28;;
77220;SDS011;66217;50.004;8.266;2023-07-24T02:48:56;5.28;;;2.45;;
77220;SDS011;66217;50.004;8.266;2023-07-24T02:51:22;4.88;;;2.50;;
77220;SDS011;66217;50.004;8.266;2023-07-24T02:53:47;5.18;;;2.30;;
77220;SDS011;66217;50.004;8.266;2023-07-24T02:56:13;5.38;;;2.25;;
77220;SDS011;66217;50.004;8.266;2023-07-24T02:58:38;3.72;;;2.28;;
77220;SDS011;66217;50.004;8.266;2023-07-24T03:01:04;4.53;;;2.38;;
77220;SDS011;66217;50.004;8.266;2023-07-24T03:03:31;5.72;;;2.28;;
77220;SDS011;66217;50.004;8.266;2023-07-24T03:06:00;5.22;;;2.28;;
77220;SDS011;66217;50.004;8.266;2023-07-24T03:08:25;4.32;;;2.33;;
77220;SDS011;66217;50.004;8.266;2023-07-24T03:10:51;4.25;;;2.22;;
77220;SDS011;66217;50.004;8.266;2023-07-24T03:13:16;2.90;;;2.28;;
77220;SDS011;66217;50.004;8.266;2023-07-24T03:15:42;5.50;;;2.70;;
77220;SDS011;66217;50.004;8.266;2023-07-24T03:18:07;4.65;;;2.20;;
77220;SDS011;66217;50.004;8.266;2023-07-24T03:20:33;4.35;;;2.22;;
77220;SDS011;66217;50.004;8.266;2023-07-24T03:22:58;7.43;;;2.55;;
77220;SDS011;66217;50.004;8.266;2023-07-24T03:25:24;6.03;;;2.42;;
77220;SDS011;66217;50.004;8.266;2023-07-24T03:27:49;3.03;;;2.05;;
77220;SDS011;66217;50.004;8.266;2023-07-24T03:30:14;4.95;;;2.30;;
77220;SDS011;66217;50.004;8.266;2023-07-24T03:32:40;4.50;;;2.42;;
77220;SDS011;66217;50.004;8.266;2023-07-24T03:35:06;3.80;;;2.13;;
77220;SDS011;66217;50.004;8.266;2023-07-24T03:37:33;6.18;;;2.63;;
77220;SDS011;66217;50.004;8.266;2023-07-24T03:39:59;6.57;;;2.42;;
77220;SDS011;66217;50.004;8.266;2023-07-24T03:42:26;5.93;;;2.40;;
77220;SDS011;66217;50.004;8.266;2023-07-24T03:44:52;3.15;;;2.10;;
77220;SDS011;66217;50.004;8.266;2023-07-24T03:47:20;5.93;;;2.22;;
77220;SDS011;66217;50.004;8.266;2023-07-24T03:49:45;8.13;;;2.20;;
77220;SDS011;66217;50.004;8.266;2023-07-24T03:52:11;7.30;;;2.40;;
77220;SDS011;66217;50.004;8.266;2023-07-24T03:54:36;5.78;;;2.67;;
77220;SDS011;66217;50.004;8.266;2023-07-24T03:57:02;5.95;;;3.00;;
77220;SDS011;66217;50.004;8.266;2023-07-24T03:59:28;6.72;;;3.30;;
77220;SDS011;66217;50.004;8.266;2023-07-24T04:01:53;5.80;;;2.70;;
77220;SDS011;66217;50.004;8.266;2023-07-24T04:04:18;8.45;;;2.90;;
77220;SDS011;66217;50.004;8.266;2023-07-24T04:06:45;7.93;;;3.20;;
77220;SDS011;66217;50.004;8.266;2023-07-24T04:09:10;4.88;;;2.85;;
77220;SDS011;66217;50.004;8.266;2023-07-24T04:11:39;5.97;;;2.60;;
77220;SDS011;66217;50.004;8.266;2023-07-24T04:14:05;5.85;;;2.33;;
77220;SDS011;66217;50.004;8.266;2023-07-24T04:16:30;9.32;;;2.65;;
77220;SDS011;66217;50.004;8.266;2023-07-24T04:18:56;5.78;;;2.58;;
77220;SDS011;66217;50.004;8.266;2023-07-24T04:21:22;5.75;;;2.97;;
77220;SDS011;66217;50.004;8.266;2023-07-24T04:23:47;9.25;;;2.85;;
77220;SDS011;66217;50.004;8.266;2023-07-24T04:26:13;5.80;;;3.00;;
77220;SDS011;66217;50.004;8.266;2023-07-24T04:28:38;4.40;;;2.50;;
77220;SDS011;66217;50.004;8.266;2023-07-24T04:31:04;4.43;;;2.58;;
77220;SDS011;66217;50.004;8.266;2023-07-24T04:33:29;5.38;;;2.95;;
77220;SDS011;66217;50.004;8.266;2023-07-24T04:35:55;5.53;;;2.80;;
77220;SDS011;66217;50.004;8.266;2023-07-24T04:38:20;6.07;;;3.13;;
77220;SDS011;66217;50.004;8.266;2023-07-24T04:40:46;5.63;;;2.63;;
77220;SDS011;66217;50.004;8.266;2023-07-24T04:43:11;10.48;;;2.70;;
77220;SDS011;66217;50.004;8.266;2023-07-24T04:45:37;7.75;;;3.45;;
77220;SDS011;66217;50.004;8.266;2023-07-24T04:48:02;6.57;;;3.10;;
77220;SDS011;66217;50.004;8.266;2023-07-24T04:50:28;5.72;;;3.10;;
77220;SDS011;66217;50.004;8.266;2023-07-24T04:52:54;6.65;;;2.78;;
77220;SDS011;66217;50.004;8.266;2023-07-24T04:55:19;7.47;;;2.78;;
77220;SDS011;66217;50.004;8.266;2023-07-24T04:57:46;5.57;;;2.78;;
77220;SDS011;66217;50.004;8.266;2023-07-24T05:00:11;11.68;;;3.33;;
77220;SDS011;66217;50.004;8.266;2023-07-24T05:02:37;5.97;;;2.63;;
77220;SDS011;66217;50.004;8.266;2023-07-24T05:05:02;4.63;;;2.80;;
77220;SDS011;66217;50.004;8.266;2023-07-24T05:07:28;8.25;;;2.70;;
77220;SDS011;66217;50.004;8.266;2023-07-24T05:09:53;3.70;;;2.80;;
77220;SDS011;66217;50.004;8.266;2023-07-24T05:12:19;4.32;;;2.53;;
77220;SDS011;66217;50.004;8.266;2023-07-24T05:14:44;6.43;;;3.03;;
77220;SDS011;66217;50.004;8.266;2023-07-24T05:17:10;4.60;;;2.80;;
77220;SDS011;66217;50.004;8.266;2023-07-24T05:19:35;5.68;;;3.20;;
77220;SDS011;66217;50.004;8.266;2023-07-24T05:22:00;6.20;;;2.85;;
77220;SDS011;66217;50.004;8.266;2023-07-24T05:24:26;6.25;;;2.53;;
77220;SDS011;66217;50.004;8.266;2023-07-24T05:26:51;8.55;;;2.92;;
77220;SDS011;66217;50.004;8.266;2023-07-24T05:29:16;6.75;;;3.22;;
77220;SDS011;66217;50.004;8.266;2023-07-24T05:31:42;12.88;;;5.28;;
77220;SDS011;66217;50.004;8.266;2023-07-24T05:34:07;17.23;;;6.30;;
77220;SDS011;66217;50.004;8.266;2023-07-24T05:36:33;11.23;;;2.85;;
77220;SDS011;66217;50.004;8.266;2023-07-24T05:38:58;5.00;;;2.97;;
77220;SDS011;66217;50.004;8.266;2023-07-24T05:41:24;6.50;;;2.80;;
77220;SDS011;66217;50.004;8.266;2023-07-24T05:43:49;10.80;;;2.80;;
77220;SDS011;66217;50.004;8.266;2023-07-24T05:46:15;6.20;;;2.53;;
77220;SDS011;66217;50.004;8.266;2023-07-24T05:48:40;7.07;;;2.83;;
77220;SDS011;66217;50.004;8.266;2023-07-24T05:51:06;5.80;;;3.15;;
77220;SDS011;66217;50.004;8.266;2023-07-24T05:53:31;6.75;;;2.70;;
77220;SDS011;66217;50.004;8.266;2023-07-24T05:55:57;10.07;;;3.30;;
77220;SDS011;66217;50.004;8.266;2023-07-24T05:58:24;7.88;;;3.13;;
77220;SDS011;66217;50.004;8.266;2023-07-24T06:00:49;5.75;;;2.55;;
77220;SDS011;66217;50.004;8.266;2023-07-24T06:03:15;5.03;;;2.90;;
77220;SDS011;66217;50.004;8.266;2023-07-24T06:05:40;6.32;;;2.60;;
77220;SDS011;66217;50.004;8.266;2023-07-24T06:08:05;5.28;;;2.63;;
77220;SDS011;66217;50.004;8.266;2023-07-24T06:10:33;3.92;;;2.30;;
77220;SDS011;66217;50.004;8.266;2023-07-24T06:12:59;10.15;;;2.47;;
77220;SDS011;66217;50.004;8.266;2023-07-24T06:15:25;10.70;;;2.80;;
77220;SDS011;66217;50.004;8.266;2023-07-24T06:17:50;7.32;;;2.70;;
77220;SDS011;66217;50.004;8.266;2023-07-24T06:20:15;5.07;;;2.72;;
77220;SDS011;66217;50.004;8.266;2023-07-24T06:22:41;5.00;;;2.60;;
77220;SDS011;66217;50.004;8.266;2023-07-24T06:25:06;4.63;;;2.60;;
77220;SDS011;66217;50.004;8.266;2023-07-24T06:27:32;4.75;;;2.20;;
77220;SDS011;66217;50.004;8.266;2023-07-24T06:29:57;9.23;;;2.80;;
77220;SDS011;66217;50.004;8.266;2023-07-24T06:32:23;4.75;;;2.75;;
77220;SDS011;66217;50.004;8.266;2023-07-24T06:34:48;4.97;;;2.42;;
77220;SDS011;66217;50.004;8.266;2023-07-24T06:37:14;5.00;;;2.72;;
77220;SDS011;66217;50.004;8.266;2023-07-24T06:39:39;6.80;;;2.70;;
77220;SDS011;66217;50.004;8.266;2023-07-24T06:42:05;6.13;;;2.83;;
77220;SDS011;66217;50.004;8.266;2023-07-24T06:44:30;7.55;;;2.70;;
77220;SDS011;66217;50.004;8.266;2023-07-24T06:46:56;6.88;;;2.70;;
77220;SDS011;66217;50.004;8.266;2023-07-24T06:49:21;6.13;;;2.83;;
77220;SDS011;66217;50.004;8.266;2023-07-24T06:51:47;8.50;;;2.58;;
77220;SDS011;66217;50.004;8.266;2023-07-24T06:54:12;7.20;;;2.50;;
77220;SDS011;66217;50.004;8.266;2023-07-24T06:56:38;6.20;;;2.78;;
77220;SDS011;66217;50.004;8.266;2023-07-24T06:59:03;7.32;;;2.80;;
77220;SDS011;66217;50.004;8.266;2023-07-24T07:01:31;7.88;;;2.90;;
77220;SDS011;66217;50.004;8.266;2023-07-24T07:03:56;11.35;;;3.03;;
77220;SDS011;66217;50.004;8.266;2023-07-24T07:06:22;11.90;;;3.15;;
77220;SDS011;66217;50.004;8.266;2023-07-24T07:08:47;14.50;;;3.47;;
77220;SDS011;66217;50.004;8.266;2023-07-24T07:11:12;5.55;;;2.85;;
77220;SDS011;66217;50.004;8.266;2023-07-24T07:13:38;6.60;;;2.90;;
77220;SDS011;66217;50.004;8.266;2023-07-24T07:16:03;8.07;;;3.10;;
77220;SDS011;66217;50.004;8.266;2023-07-24T07:18:29;8.38;;;3.50;;
77220;SDS011;66217;50.004;8.266;2023-07-24T07:20:54;7.05;;;3.05;;
77220;SDS011;66217;50.004;8.266;2023-07-24T07:23:20;4.95;;;2.67;;
77220;SDS011;66217;50.004;8.266;2023-07-24T07:25:46;7.60;;;3.05;;
77220;SDS011;66217;50.004;8.266;2023-07-24T07:28:12;5.43;;;3.08;;
77220;SDS011;66217;50.004;8.266;2023-07-24T07:30:38;5.25;;;3.00;;
77220;SDS011;66217;50.004;8.266;2023-07-24T07:33:03;7.97;;;2.92;;
77220;SDS011;66217;50.004;8.266;2023-07-24T07:35:31;5.60;;;2.88;;
77220;SDS011;66217;50.004;8.266;2023-07-24T07:37:57;9.02;;;3.25;;
77220;SDS011;66217;50.004;8.266;2023-07-24T07:40:23;8.85;;;2.60;;
77220;SDS011;66217;50.004;8.266;2023-07-24T07:42:48;6.28;;;2.80;;
77220;SDS011;66217;50.004;8.266;2023-07-24T07:45:14;5.22;;;2.78;;
77220;SDS011;66217;50.004;8.266;2023-07-24T07:47:39;5.57;;;3.20;;
77220;SDS011;66217;50.004;8.266;2023-07-24T07:50:05;6.57;;;2.85;;
77220;SDS011;66217;50.004;8.266;2023-07-24T07:52:31;6.60;;;3.17;;
77220;SDS011;66217;50.004;8.266;2023-07-24T07:54:56;7.10;;;2.88;;
77220;SDS011;66217;50.004;8.266;2023-07-24T07:57:22;6.15;;;3.15;;
77220;SDS011;66217;50.004;8.266;2023-07-24T07:59:47;9.07;;;4.15;;
77220;SDS011;66217;50.004;8.266;2023-07-24T08:02:12;10.82;;;3.20;;
77220;SDS011;66217;50.004;8.266;2023-07-24T08:04:38;4.57;;;2.90;;
77220;SDS011;66217;50.004;8.266;2023-07-24T08:07:03;6.30;;;2.70;;
77220;SDS011;66217;50.004;8.266;2023-07-24T08:09:29;6.28;;;3.33;;
77220;SDS011;66217;50.004;8.266;2023-07-24T08:11:54;6.90;;;3.50;;
77220;SDS011;66217;50.004;8.266;2023-07-24T08:14:20;4.75;;;2.80;;
77220;SDS011;66217;50.004;8.266;2023-07-24T08:16:49;7.45;;;3.50;;
77220;SDS011;66217;50.004;8.266;2023-07-24T08:19:14;8.00;;;3.05;;
77220;SDS011;66217;50.004;8.266;2023-07-24T08:21:40;6.38;;;2.90;;
77220;SDS011;66217;50.004;8.266;2023-07-24T08:24:05;7.90;;;2.92;;
77220;SDS011;66217;50.004;8.266;2023-07-24T08:26:31;9.75;;;3.55;;
77220;SDS011;66217;50.004;8.266;2023-07-24T08:28:56;6.63;;;3.17;;
77220;SDS011;66217;50.004;8.266;2023-07-24T08:31:22;5.80;;;2.70;;
77220;SDS011;66217;50.004;8.266;2023-07-24T08:33:47;5.93;;;2.97;;
77220;SDS011;66217;50.004;8.266;2023-07-24T08:36:13;8.27;;;3.47;;
77220;SDS011;66217;50.004;8.266;2023-07-24T08:38:38;5.68;;;3.00;;
77220;SDS011;66217;50.004;8.266;2023-07-24T08:41:05;8.50;;;3.20;;
77220;SDS011;66217;50.004;8.266;2023-07-24T08:43:31;7.53;;;3.03;;
77220;SDS011;66217;50.004;8.266;2023-07-24T08:45:58;6.45;;;3.00;;
77220;SDS011;66217;50.004;8.266;2023-07-24T08:48:25;5.55;;;3.55;;
77220;SDS011;66217;50.004;8.266;2023-07-24T08:50:52;9.38;;;2.88;;
77220;SDS011;66217;50.004;8.266;2023-07-24T08:53:18;5.53;;;3.10;;
77220;SDS011;66217;50.004;8.266;2023-07-24T08:55:45;8.13;;;3.38;;
77220;SDS011;66217;50.004;8.266;2023-07-24T08:58:13;8.45;;;3.03;;
77220;SDS011;66217;50.004;8.266;2023-07-24T09:00:39;12.43;;;4.97;;
77220;SDS011;66217;50.004;8.266;2023-07-24T09:03:04;4.70;;;2.95;;
77220;SDS011;66217;50.004;8.266;2023-07-24T09:05:30;7.47;;;2.78;;
77220;SDS011;66217;50.004;8.266;2023-07-24T09:07:55;3.75;;;2.80;;
77220;SDS011;66217;50.004;8.266;2023-07-24T09:10:24;4.13;;;2.92;;
77220;SDS011;66217;50.004;8.266;2023-07-24T09:12:50;5.57;;;2.63;;
77220;SDS011;66217;50.004;8.266;2023-07-24T09:15:16;5.57;;;3.00;;
77220;SDS011;66217;50.004;8.266;2023-07-24T09:17:51;8.88;;;2.97;;
77220;SDS011;66217;50.004;8.266;2023-07-24T09:20:17;4.97;;;2.95;;
77220;SDS011;66217;50.004;8.266;2023-07-24T09:22:50;5.43;;;3.13;;
77220;SDS011;66217;50.004;8.266;2023-07-24T09:25:29;6.00;;;3.25;;
77220;SDS011;66217;50.004;8.266;2023-07-24T09:28:00;5.35;;;3.17;;
77220;SDS011;66217;50.004;8.266;2023-07-24T09:30:27;6.40;;;2.80;;
77220;SDS011;66217;50.004;8.266;2023-07-24T09:32:53;5.22;;;2.92;;
77220;SDS011;66217;50.004;8.266;2023-07-24T09:35:19;4.22;;;2.88;;
77220;SDS011;66217;50.004;8.266;2023-07-24T09:37:46;5.70;;;2.95;;
77220;SDS011;66217;50.004;8.266;2023-07-24T09:40:13;4.88;;;3.00;;
77220;SDS011;66217;50.004;8.266;2023-07-24T09:42:39;5.03;;;3.00;;
77220;SDS011;66217;50.004;8.266;2023-07-24T09:45:05;5.90;;;2.67;;
77220;SDS011;66217;50.004;8.266;2023-07-24T09:47:33;4.68;;;3.22;;
77220;SDS011;66217;50.004;8.266;2023-07-24T09:49:59;4.32;;;2.83;;
77220;SDS011;66217;50.004;8.266;2023-07-24T09:52:29;5.70;;;2.97;;
77220;SDS011;66217;50.004;8.266;2023-07-24T09:54:59;5.32;;;3.55;;
77220;SDS011;66217;50.004;8.266;2023-07-24T09:57:33;5.53;;;3.22;;
77220;SDS011;66217;50.004;8.266;2023-07-24T09:59:59;4.38;;;3.15;;
77220;SDS011;66217;50.004;8.266;2023-07-24T10:02:26;4.38;;;3.28;;
77220;SDS011;66217;50.004;8.266;2023-07-24T10:04:53;5.95;;;3.75;;
77220;SDS011;66217;50.004;8.266;2023-07-24T10:07:18;5.20;;;3.67;;
77220;SDS011;66217;50.004;8.266;2023-07-24T10:09:47;7.07;;;3.60;;
77220;SDS011;66217;50.004;8.266;2023-07-24T10:12:12;6.93;;;4.05;;
77220;SDS011;66217;50.004;8.266;2023-07-24T10:14:38;6.65;;;3.92;;
77220;SDS011;66217;50.004;8.266;2023-07-24T10:17:03;5.97;;;4.15;;
77220;SDS011;66217;50.004;8.266;2023-07-24T10:19:38;5.88;;;3.88;;
77220;SDS011;66217;50.004;8.266;2023-07-24T10:22:04;6.80;;;4.28;;
77220;SDS011;66217;50.004;8.266;2023-07-24T10:24:30;6.90;;;4.38;;
77220;SDS011;66217;50.004;8.266;2023-07-24T10:26:56;9.38;;;4.03;;
77220;SDS011;66217;50.004;8.266;2023-07-24T10:29:23;5.82;;;4.07;;
77220;SDS011;66217;50.004;8.266;2023-07-24T10:31:54;7.35;;;4.75;;
77220;SDS011;66217;50.004;8.266;2023-07-24T10:34:20;8.07;;;4.15;;
77220;SDS011;66217;50.004;8.266;2023-07-24T10:36:46;8.50;;;4.50;;
77220;SDS011;66217;50.004;8.266;2023-07-24T10:39:15;8.23;;;4.50;;
77220;SDS011;66217;50.004;8.266;2023-07-24T10:41:43;6.45;;;4.10;;
77220;SDS011;66217;50.004;8.266;2023-07-24T10:44:10;6.18;;;3.92;;
77220;SDS011;66217;50.004;8.266;2023-07-24T10:46:40;6.47;;;4.38;;
77220;SDS011;66217;50.004;8.266;2023-07-24T10:49:06;6.15;;;4.15;;
77220;SDS011;66217;50.004;8.266;2023-07-24T10:51:32;6.88;;;4.32;;
77220;SDS011;66217;50.004;8.266;2023-07-24T10:53:59;8.43;;;3.80;;
77220;SDS011;66217;50.004;8.266;2023-07-24T10:56:31;9.50;;;3.90;;
77220;SDS011;66217;50.004;8.266;2023-07-24T10:59:01;6.53;;;3.95;;
77220;SDS011;66217;50.004;8.266;2023-07-24T11:01:28;7.00;;;4.28;;
77220;SDS011;66217;50.004;8.266;2023-07-24T11:03:53;8.02;;;4.30;;
77220;SDS011;66217;50.004;8.266;2023-07-24T11:06:19;7.18;;;4.10;;
77220;SDS011;66217;50.004;8.266;2023-07-24T11:08:56;6.45;;;4.00;;
77220;SDS011;66217;50.004;8.266;2023-07-24T11:11:33;5.57;;;3.80;;
77220;SDS011;66217;50.004;8.266;2023-07-24T11:14:00;7.88;;;4.30;;
77220;SDS011;66217;50.004;8.266;2023-07-24T11:16:27;5.78;;;3.78;;
77220;SDS011;66217;50.004;8.266;2023-07-24T11:18:52;10.45;;;3.88;;
77220;SDS011;66217;50.004;8.266;2023-07-24T11:21:18;6.63;;;3.47;;
77220;SDS011;66217;50.004;8.266;2023-07-24T11:23:47;5.90;;;3.72;;
77220;SDS011;66217;50.004;8.266;2023-07-24T11:26:14;8.65;;;3.70;;
77220;SDS011;66217;50.004;8.266;2023-07-24T11:28:41;5.93;;;3.90;;
77220;SDS011;66217;50.004;8.266;2023-07-24T11:31:06;8.73;;;3.70;;
77220;SDS011;66217;50.004;8.266;2023-07-24T11:33:32;5.55;;;3.72;;
77220;SDS011;66217;50.004;8.266;2023-07-24T11:35:57;8.98;;;3.70;;
77220;SDS011;66217;50.004;8.266;2023-07-24T11:38:23;6.00;;;3.88;;
77220;SDS011;66217;50.004;8.266;2023-07-24T11:40:48;6.60;;;3.95;;
77220;SDS011;66217;50.004;8.266;2023-07-24T11:43:18;5.03;;;3.55;;
77220;SDS011;66217;50.004;8.266;2023-07-24T11:45:48;5.63;;;3.65;;
77220;SDS011;66217;50.004;8.266;2023-07-24T11:48:17;10.13;;;4.10;;
77220;SDS011;66217;50.004;8.266;2023-07-24T11:50:46;5.82;;;3.85;;
77220;SDS011;66217;50.004;8.266;2023-07-24T11:53:25;4.65;;;3.22;;
77220;SDS011;66217;50.004;8.266;2023-07-24T11:55:54;4.93;;;3.90;;
77220;SDS011;66217;50.004;8.266;2023-07-24T11:58:26;7.47;;;3.83;;
77220;SDS011;66217;50.004;8.266;2023-07-24T12:03:21;6.53;;;3.88;;
77220;SDS011;66217;50.004;8.266;2023-07-24T12:05:48;7.00;;;3.80;;
77220;SDS011;66217;50.004;8.266;2023-07-24T12:08:13;7.50;;;3.95;;
77220;SDS011;66217;50.004;8.266;2023-07-24T12:10:42;7.10;;;3.97;;
77220;SDS011;66217;50.004;8.266;2023-07-24T12:13:08;5.78;;;3.60;;
77220;SDS011;66217;50.004;8.266;2023-07-24T12:15:34;4.80;;;3.20;;
77220;SDS011;66217;50.004;8.266;2023-07-24T12:18:03;5.55;;;3.58;;
77220;SDS011;66217;50.004;8.266;2023-07-24T12:20:29;4.30;;;3.13;;
77220;SDS011;66217;50.004;8.266;2023-07-24T12:22:54;6.40;;;3.70;;
77220;SDS011;66217;50.004;8.266;2023-07-24T12:25:20;8.18;;;3.80;;
77220;SDS011;66217;50.004;8.266;2023-07-24T12:27:48;6.20;;;3.90;;
77220;SDS011;66217;50.004;8.266;2023-07-24T12:30:14;9.85;;;3.70;;
77220;SDS011;66217;50.004;8.266;2023-07-24T12:32:39;7.43;;;3.85;;
77220;SDS011;66217;50.004;8.266;2023-07-24T12:35:07;6.63;;;3.88;;
77220;SDS011;66217;50.004;8.266;2023-07-24T12:37:33;6.35;;;2.90;;
77220;SDS011;66217;50.004;8.266;2023-07-24T12:39:58;5.85;;;3.60;;
77220;SDS011;66217;50.004;8.266;2023-07-24T12:42:24;10.75;;;3.58;;
77220;SDS011;66217;50.004;8.266;2023-07-24T12:44:49;4.82;;;3.60;;
77220;SDS011;66217;50.004;8.266;2023-07-24T12:47:15;5.90;;;3.25;;
77220;SDS011;66217;50.004;8.266;2023-07-24T12:49:40;5.70;;;3.60;;
77220;SDS011;66217;50.004;8.266;2023-07-24T12:52:06;8.20;;;4.03;;
77220;SDS011;66217;50.004;8.266;2023-07-24T12:54:32;4.70;;;3.30;;
77220;SDS011;66217;50.004;8.266;2023-07-24T12:56:58;7.00;;;3.25;;
77220;SDS011;66217;50.004;8.266;2023-07-24T12:59:23;5.68;;;3.45;;
77220;SDS011;66217;50.004;8.266;2023-07-24T13:01:49;5.15;;;3.45;;
77220;SDS011;66217;50.004;8.266;2023-07-24T13:04:14;5.55;;;3.30;;
77220;SDS011;66217;50.004;8.266;2023-07-24T13:06:40;6.95;;;3.33;;
77220;SDS011;66217;50.004;8.266;2023-07-24T13:09:05;7.57;;;3.20;;
77220;SDS011;66217;50.004;8.266;2023-07-24T13:11:31;4.25;;;2.92;;
77220;SDS011;66217;50.004;8.266;2023-07-24T13:13:56;6.40;;;3.75;;
77220;SDS011;66217;50.004;8.266;2023-07-24T13:16:22;6.72;;;3.50;;
77220;SDS011;66217;50.004;8.266;2023-07-24T13:18:48;5.18;;;3.95;;
77220;SDS011;66217;50.004;8.266;2023-07-24T13:21:14;7.93;;;3.80;;
77220;SDS011;66217;50.004;8.266;2023-07-24T13:23:42;6.03;;;4.10;;
77220;SDS011;66217;50.004;8.266;2023-07-24T13:26:08;8.75;;;3.90;;
77220;SDS011;66217;50.004;8.266;2023-07-24T13:28:36;8.52;;;4.05;;
77220;SDS011;66217;50.004;8.266;2023-07-24T13:31:14;5.45;;;3.53;;
77220;SDS011;66217;50.004;8.266;2023-07-24T13:33:40;5.20;;;3.63;;
77220;SDS011;66217;50.004;8.266;2023-07-24T13:36:06;6.68;;;3.63;;
77220;SDS011;66217;50.004;8.266;2023-07-24T13:38:31;8.20;;;3.53;;
77220;SDS011;66217;50.004;8.266;2023-07-24T13:40:57;6.25;;;3.60;;
77220;SDS011;66217;50.004;8.266;2023-07-24T13:43:23;7.13;;;3.70;;
77220;SDS011;66217;50.004;8.266;2023-07-24T13:45:49;7.80;;;3.88;;
77220;SDS011;66217;50.004;8.266;2023-07-24T13:48:14;8.35;;;3.63;;
77220;SDS011;66217;50.004;8.266;2023-07-24T13:50:40;7.38;;;3.95;;
77220;SDS011;66217;50.004;8.266;2023-07-24T13:53:05;7.68;;;4.10;;
77220;SDS011;66217;50.004;8.266;2023-07-24T13:55:30;8.05;;;4.35;;
77220;SDS011;66217;50.004;8.266;2023-07-24T13:57:56;6.30;;;3.88;;
77220;SDS011;66217;50.004;8.266;2023-07-24T14:00:21;5.63;;;3.70;;
77220;SDS011;66217;50.004;8.266;2023-07-24T14:02:47;5.60;;;2.97;;
77220;SDS011;66217;50.004;8.266;2023-07-24T14:05:12;7.60;;;3.25;;
77220;SDS011;66217;50.004;8.266;2023-07-24T14:07:38;6.05;;;3.13;;
77220;SDS011;66217;50.004;8.266;2023-07-24T14:10:03;4.97;;;2.83;;
77220;SDS011;66217;50.004;8.266;2023-07-24T14:12:29;4.75;;;3.25;;
77220;SDS011;66217;50.004;8.266;2023-07-24T14:14:54;6.43;;;2.90;;
77220;SDS011;66217;50.004;8.266;2023-07-24T14:17:20;4.57;;;3.22;;
77220;SDS011;66217;50.004;8.266;2023-07-24T14:19:45;7.22;;;3.50;;
77220;SDS011;66217;50.004;8.266;2023-07-24T14:22:10;6.05;;;3.70;;
77220;SDS011;66217;50.004;8.266;2023-07-24T14:24:36;6.57;;;3.88;;
77220;SDS011;66217;50.004;8.266;2023-07-24T14:27:01;5.68;;;3.22;;
77220;SDS011;66217;50.004;8.266;2023-07-24T14:29:27;6.80;;;4.28;;
77220;SDS011;66217;50.004;8.266;2023-07-24T14:31:52;4.47;;;2.80;;
77220;SDS011;66217;50.004;8.266;2023-07-24T14:34:18;4.63;;;2.60;;
77220;SDS011;66217;50.004;8.266;2023-07-24T14:36:43;5.45;;;3.10;;
77220;SDS011;66217;50.004;8.266;2023-07-24T14:39:11;11.65;;;5.55;;
77220;SDS011;66217;50.004;8.266;2023-07-24T14:41:36;7.15;;;3.35;;
77220;SDS011;66217;50.004;8.266;2023-07-24T14:44:02;7.40;;;4.22;;
77220;SDS011;66217;50.004;8.266;2023-07-24T14:46:27;8.10;;;3.35;;
77220;SDS011;66217;50.004;8.266;2023-07-24T14:48:53;3.50;;;2.40;;